createdAt,value
2023-02-21T00:00:00.291Z,60.70
2023-02-21T00:03:22.512Z,59.19
2023-02-21T00:06:44.228Z,59.77
2023-02-21T00:10:05.365Z,59.17
2023-02-21T00:13:26.535Z,59.88
2023-02-21T00:16:49.413Z,60.43
2023-02-21T00:20:12.244Z,59.96
2023-02-21T00:23:33.233Z,60.74
2023-02-21T00:26:53.778Z,59.94
2023-02-21T00:30:14.513Z,59.92
2023-02-21T00:33:36.233Z,60.04
2023-02-21T00:36:58.110Z,60.10
2023-02-21T00:40:19.179Z,60.59
2023-02-21T00:43:48.068Z,60.28
2023-02-21T00:47:08.893Z,60.26
2023-02-21T00:50:29.870Z,60.75
2023-02-21T00:53:50.740Z,60.53
2023-02-21T00:57:11.683Z,61.85
2023-02-21T01:00:38.685Z,62.13
2023-02-21T01:03:59.531Z,62.07
2023-02-21T01:07:20.185Z,62.17
2023-02-21T01:10:41.053Z,62.26
2023-02-21T01:14:01.619Z,62.04
2023-02-21T01:17:22.863Z,61.69
2023-02-21T01:20:44.245Z,61.44
2023-02-21T01:24:06.156Z,62.03
2023-02-21T01:27:27.255Z,62.02
2023-02-21T01:30:48.076Z,61.67
2023-02-21T01:34:08.783Z,60.91
2023-02-21T01:37:29.817Z,61.88
2023-02-21T01:40:52.984Z,62.08
2023-02-21T01:44:23.974Z,62.09
2023-02-21T01:47:45.557Z,61.93
2023-02-21T01:51:07.497Z,61.35
2023-02-21T01:54:30.866Z,60.79
2023-02-21T01:57:52.198Z,60.97
2023-02-21T02:01:13.404Z,61.51
2023-02-21T02:04:34.167Z,61.91
2023-02-21T02:07:55.943Z,61.75
2023-02-21T02:11:42.400Z,62.27
2023-02-21T02:15:09.189Z,61.67
2023-02-21T02:18:23.279Z,60.87
2023-02-21T02:22:02.481Z,62.18
2023-02-21T02:25:10.292Z,61.25
2023-02-21T02:28:15.480Z,61.39
2023-02-21T02:31:37.434Z,61.67
2023-02-21T02:34:46.306Z,60.96
2023-02-21T02:38:04.348Z,62.06
2023-02-21T02:41:24.365Z,61.61
2023-02-21T02:44:39.468Z,60.38
2023-02-21T02:47:44.629Z,60.46
2023-02-21T02:50:49.161Z,61.47
2023-02-21T02:53:51.236Z,61.58
2023-02-21T02:56:53.503Z,60.65
2023-02-21T02:59:55.768Z,61.68
2023-02-21T03:03:16.347Z,61.81
2023-02-21T03:06:42.982Z,61.62
2023-02-21T03:09:57.700Z,61.37
2023-02-21T03:13:18.495Z,61.17
2023-02-21T03:16:28.973Z,61.88
2023-02-21T03:19:38.806Z,60.79
2023-02-21T03:22:43.634Z,61.19
2023-02-21T03:25:47.558Z,60.80
2023-02-21T03:28:51.016Z,61.35
2023-02-21T03:32:12.369Z,60.68
2023-02-21T03:35:15.432Z,60.95
2023-02-21T03:38:18.121Z,60.16
2023-02-21T03:41:20.449Z,60.72
2023-02-21T03:44:22.909Z,60.87
2023-02-21T03:47:26.382Z,61.49
2023-02-21T03:50:28.495Z,61.83
2023-02-21T03:53:30.995Z,61.58
2023-02-21T03:56:41.542Z,61.13
2023-02-21T04:00:00.528Z,61.95
2023-02-21T04:03:03.045Z,61.12
2023-02-21T04:06:12.137Z,60.96
2023-02-21T04:09:14.359Z,60.50
2023-02-21T04:12:17.929Z,61.16
2023-02-21T04:15:20.119Z,60.63
2023-02-21T04:18:22.382Z,61.13
2023-02-21T04:21:26.914Z,60.97
2023-02-21T04:24:31.225Z,61.63
2023-02-21T04:27:34.880Z,60.60
2023-02-21T04:30:37.411Z,61.09
2023-02-21T04:33:40.281Z,60.73
2023-02-21T04:36:44.148Z,61.19
2023-02-21T04:39:46.147Z,61.38
2023-02-21T04:42:50.789Z,61.33
2023-02-21T04:45:53.443Z,62.25
2023-02-21T04:48:55.850Z,61.77
2023-02-21T04:51:58.005Z,61.59
2023-02-21T04:55:00.159Z,61.47
2023-02-21T04:58:02.191Z,62.05
2023-02-21T05:01:04.525Z,62.16
2023-02-21T05:04:07.469Z,60.68
2023-02-21T05:07:09.707Z,61.85
2023-02-21T05:10:11.939Z,61.18
2023-02-21T05:13:15.045Z,61.73
2023-02-21T05:16:19.390Z,61.00
2023-02-21T05:19:28.374Z,61.64
2023-02-21T05:22:30.405Z,61.73
2023-02-21T05:25:32.777Z,61.14
2023-02-21T05:28:35.512Z,61.49
2023-02-21T05:31:37.811Z,65.02
2023-02-21T05:34:44.461Z,67.71
2023-02-21T05:37:46.571Z,75.93
2023-02-21T05:40:49.132Z,76.34
2023-02-21T05:43:51.325Z,71.23
2023-02-21T05:46:53.452Z,70.40
2023-02-21T05:49:55.547Z,69.49
2023-02-21T05:52:58.898Z,67.93
2023-02-21T05:56:00.888Z,66.23
2023-02-21T05:59:03.082Z,66.08
2023-02-21T06:02:05.152Z,64.97
2023-02-21T06:05:07.707Z,63.61
2023-02-21T06:08:11.892Z,62.42
2023-02-21T06:11:22.722Z,61.68
2023-02-21T06:14:25.782Z,61.37
2023-02-21T06:17:27.979Z,61.28
2023-02-21T06:20:30.080Z,61.12
2023-02-21T06:23:32.112Z,62.38
2023-02-21T06:26:35.047Z,63.23
2023-02-21T06:29:37.158Z,66.65
2023-02-21T06:32:39.379Z,70.97
2023-02-21T06:35:41.494Z,69.09
2023-02-21T06:38:46.696Z,67.92
2023-02-21T06:41:50.762Z,68.19
2023-02-21T06:44:52.815Z,67.21
2023-02-21T06:47:55.035Z,66.54
2023-02-21T06:50:57.416Z,65.00
2023-02-21T06:54:00.960Z,63.10
2023-02-21T06:57:03.315Z,62.23
2023-02-21T07:00:06.581Z,62.73
2023-02-21T07:03:08.726Z,62.68
2023-02-21T07:06:10.836Z,61.40
2023-02-21T07:09:13.526Z,60.98
2023-02-21T07:12:15.549Z,60.60
2023-02-21T07:15:18.639Z,61.22
2023-02-21T07:18:20.824Z,62.81
2023-02-21T07:21:23.428Z,63.01
2023-02-21T07:24:25.721Z,62.74
2023-02-21T07:27:27.845Z,62.84
2023-02-21T07:30:29.972Z,63.08
2023-02-21T07:33:32.185Z,63.33
2023-02-21T07:36:34.261Z,63.04
2023-02-21T07:39:36.646Z,62.41
2023-02-21T07:42:43.822Z,62.57
2023-02-21T07:45:46.436Z,62.13
2023-02-21T07:48:48.791Z,61.45
2023-02-21T07:51:51.184Z,60.89
2023-02-21T07:54:53.278Z,61.33
2023-02-21T07:57:55.306Z,57.97
2023-02-21T08:00:57.962Z,50.71
2023-02-21T08:04:00.070Z,49.16
2023-02-21T08:07:03.487Z,46.47
2023-02-21T08:10:06.434Z,45.67
2023-02-21T08:13:08.550Z,45.15
2023-02-21T08:16:10.914Z,44.61
2023-02-21T08:19:13.050Z,44.72
2023-02-21T08:22:15.845Z,44.17
2023-02-21T08:25:18.118Z,44.41
2023-02-21T08:28:20.117Z,45.07
2023-02-21T08:31:31.533Z,45.15
2023-02-21T08:34:33.668Z,44.43
2023-02-21T08:37:37.504Z,44.17
2023-02-21T08:40:39.616Z,44.46
2023-02-21T08:43:41.805Z,44.35
2023-02-21T08:46:44.972Z,43.66
2023-02-21T08:49:48.161Z,43.60
2023-02-21T08:52:50.496Z,43.30
2023-02-21T08:55:52.465Z,42.55
2023-02-21T08:58:55.175Z,43.25
2023-02-21T09:01:57.260Z,42.83
2023-02-21T09:05:00.007Z,42.83
2023-02-21T09:08:02.237Z,41.73
2023-02-21T09:11:04.895Z,43.63
2023-02-21T09:14:07.011Z,44.89
2023-02-21T09:17:12.339Z,46.03
2023-02-21T09:20:19.461Z,45.31
2023-02-21T09:23:22.028Z,45.63
2023-02-21T09:26:25.215Z,45.29
2023-02-21T09:29:31.664Z,46.08
2023-02-21T09:32:40.618Z,47.39
2023-02-21T09:35:42.767Z,47.29
2023-02-21T09:38:44.736Z,45.92
2023-02-21T09:41:48.157Z,46.60
2023-02-21T09:44:50.781Z,47.32
2023-02-21T09:47:56.457Z,46.29
2023-02-21T09:51:02.902Z,45.24
2023-02-21T09:54:05.127Z,47.04
2023-02-21T09:57:12.707Z,46.05
2023-02-21T10:00:21.177Z,45.61
2023-02-21T10:03:38.505Z,49.68
2023-02-21T10:07:09.891Z,50.59
2023-02-21T10:10:29.373Z,54.83
2023-02-21T10:13:41.440Z,59.16
2023-02-21T10:16:47.105Z,60.92
2023-02-21T10:19:56.133Z,63.00
2023-02-21T10:23:01.009Z,67.02
2023-02-21T10:26:11.260Z,66.51
2023-02-21T10:29:26.110Z,68.06
2023-02-21T10:32:29.630Z,67.80
2023-02-21T10:35:37.852Z,68.40
2023-02-21T10:38:44.070Z,67.51
2023-02-21T10:41:47.050Z,65.68
2023-02-21T10:44:53.067Z,67.12
2023-02-21T10:48:05.582Z,70.44
2023-02-21T10:51:13.749Z,56.11
2023-02-21T10:54:24.383Z,44.88
2023-02-21T10:57:27.462Z,43.35
2023-02-21T11:00:35.753Z,40.87
2023-02-21T11:03:43.082Z,39.26
2023-02-21T11:06:48.279Z,38.53
2023-02-21T11:09:51.346Z,38.51
2023-02-21T11:13:09.753Z,36.07
2023-02-21T11:16:17.691Z,35.64
2023-02-21T11:19:19.869Z,36.18
2023-02-21T11:22:36.180Z,36.59
2023-02-21T11:25:40.878Z,35.06
2023-02-21T11:28:44.773Z,36.35
2023-02-21T11:31:49.372Z,36.40
2023-02-21T11:34:51.911Z,37.24
2023-02-21T11:37:55.769Z,36.97
2023-02-21T11:40:57.916Z,36.41
2023-02-21T11:43:59.973Z,36.40
2023-02-21T11:47:24.840Z,36.41
2023-02-21T11:50:33.048Z,37.02
2023-02-21T11:53:43.046Z,38.52
2023-02-21T11:57:04.602Z,41.68
2023-02-21T12:00:31.201Z,43.34
2023-02-21T12:03:56.275Z,43.82
2023-02-21T12:07:08.289Z,42.34
2023-02-21T12:10:19.227Z,44.08
2023-02-21T12:13:32.990Z,42.33
2023-02-21T12:16:45.170Z,40.94
2023-02-21T12:19:56.168Z,39.41
2023-02-21T12:23:12.200Z,38.31
2023-02-21T12:26:28.808Z,38.10
2023-02-21T12:29:52.630Z,37.70
2023-02-21T12:33:21.202Z,37.25
2023-02-21T12:36:48.119Z,37.21
2023-02-21T12:40:00.353Z,38.04
2023-02-21T12:43:10.511Z,37.41
2023-02-21T12:46:37.111Z,38.49
2023-02-21T12:49:45.173Z,38.71
2023-02-21T12:52:47.057Z,38.99
2023-02-21T12:56:12.554Z,38.72
2023-02-21T12:59:31.074Z,38.26
2023-02-21T13:03:09.935Z,37.60
2023-02-21T13:06:23.795Z,37.71
2023-02-21T13:09:39.674Z,39.79
2023-02-21T13:13:12.017Z,41.07
2023-02-21T13:16:15.228Z,41.65
2023-02-21T13:19:17.567Z,42.55
2023-02-21T13:23:15.603Z,62.39
2023-02-21T13:26:51.507Z,48.60
2023-02-21T13:30:04.202Z,48.62
2023-02-21T13:33:06.861Z,46.94
2023-02-21T13:36:43.506Z,46.83
2023-02-21T13:39:53.751Z,46.80
2023-02-21T13:43:06.757Z,39.26
2023-02-21T13:46:31.711Z,37.56
2023-02-21T13:49:42.874Z,36.03
2023-02-21T13:53:25.853Z,35.11
2023-02-21T13:56:45.090Z,38.10
2023-02-21T13:59:48.524Z,38.19
2023-02-21T14:03:18.256Z,38.24
2023-02-21T14:06:29.617Z,47.45
2023-02-21T14:09:38.378Z,39.15
2023-02-21T14:12:44.836Z,42.63
2023-02-21T14:15:50.124Z,45.49
2023-02-21T14:18:55.231Z,45.48
2023-02-21T14:22:03.536Z,46.17
2023-02-21T14:25:24.573Z,46.28
2023-02-21T14:28:58.139Z,45.65
2023-02-21T14:32:02.928Z,45.89
2023-02-21T14:35:17.243Z,44.74
2023-02-21T14:38:26.262Z,45.87
2023-02-21T14:41:52.217Z,45.69
2023-02-21T14:45:14.308Z,46.58
2023-02-21T14:48:36.188Z,46.86
2023-02-21T14:52:07.452Z,47.39
2023-02-21T14:55:57.133Z,49.28
2023-02-21T14:59:11.234Z,49.74
2023-02-21T15:02:32.496Z,50.23
2023-02-21T15:05:45.217Z,49.42
2023-02-21T15:08:49.682Z,50.31
2023-02-21T15:11:53.950Z,50.56
2023-02-21T15:14:56.158Z,51.54
2023-02-21T15:18:03.091Z,51.03
2023-02-21T15:21:07.926Z,51.52
2023-02-21T15:24:16.155Z,51.11
2023-02-21T15:27:20.410Z,51.76
2023-02-21T15:30:35.437Z,52.44
2023-02-21T15:33:40.829Z,52.38
2023-02-21T15:36:44.039Z,52.21
2023-02-21T15:39:55.314Z,52.97
2023-02-21T15:42:58.166Z,53.78
2023-02-21T15:46:06.843Z,54.10
2023-02-21T15:49:14.594Z,54.29
2023-02-21T15:52:49.116Z,53.62
2023-02-21T15:55:53.335Z,54.76
2023-02-21T15:59:20.066Z,54.09
2023-02-21T16:02:25.281Z,55.14
2023-02-21T16:05:30.015Z,54.94
2023-02-21T16:08:32.008Z,55.14
2023-02-21T16:11:48.966Z,53.94
2023-02-21T16:15:03.214Z,54.22
2023-02-21T16:18:08.506Z,54.64
2023-02-21T16:21:23.950Z,55.14
2023-02-21T16:24:30.429Z,51.01
2023-02-21T16:27:32.892Z,48.26
2023-02-21T16:30:35.688Z,50.35
2023-02-21T16:33:38.209Z,48.71
2023-02-21T16:36:42.000Z,47.34
2023-02-21T16:39:44.061Z,46.33
2023-02-21T16:42:46.434Z,47.83
2023-02-21T16:45:51.705Z,48.80
2023-02-21T16:48:56.659Z,49.45
2023-02-21T16:51:59.280Z,49.84
2023-02-21T16:55:01.281Z,53.67
2023-02-21T16:58:07.314Z,59.50
2023-02-21T17:01:22.017Z,56.31
2023-02-21T17:04:30.127Z,56.02
2023-02-21T17:07:33.891Z,55.20
2023-02-21T17:10:37.752Z,54.84
2023-02-21T17:13:42.039Z,54.49
2023-02-21T17:16:45.892Z,53.85
2023-02-21T17:19:48.093Z,53.38
2023-02-21T17:22:51.472Z,53.58
2023-02-21T17:25:54.257Z,53.66
2023-02-21T17:28:59.618Z,54.56
2023-02-21T17:32:07.193Z,54.35
2023-02-21T17:35:12.916Z,53.23
2023-02-21T17:38:16.422Z,53.01
2023-02-21T17:41:19.709Z,53.16
2023-02-21T17:44:28.301Z,52.53
2023-02-21T17:47:36.564Z,53.32
2023-02-21T17:50:39.171Z,53.34
2023-02-21T17:53:41.931Z,53.50
2023-02-21T17:56:44.049Z,52.29
2023-02-21T17:59:47.282Z,53.30
2023-02-21T18:02:51.208Z,53.07
2023-02-21T18:05:53.335Z,53.79
2023-02-21T18:08:58.157Z,53.29
2023-02-21T18:12:01.200Z,52.60
2023-02-21T18:15:03.731Z,52.33
2023-02-21T18:18:08.202Z,52.15
2023-02-21T18:21:12.056Z,51.87
2023-02-21T18:24:16.156Z,52.77
2023-02-21T18:27:19.453Z,52.17
2023-02-21T18:30:22.379Z,52.43
2023-02-21T18:33:27.491Z,51.69
2023-02-21T18:36:29.891Z,52.38
2023-02-21T18:39:33.445Z,52.33
2023-02-21T18:42:35.445Z,52.66
2023-02-21T18:45:40.625Z,52.49
2023-02-21T18:48:44.772Z,52.58
2023-02-21T18:51:46.978Z,52.71
2023-02-21T18:54:50.776Z,53.21
2023-02-21T18:57:53.730Z,53.53
2023-02-21T19:00:56.364Z,52.96
2023-02-21T19:03:58.603Z,53.34
2023-02-21T19:07:08.288Z,52.61
2023-02-21T19:10:13.483Z,52.95
2023-02-21T19:13:16.872Z,53.14
2023-02-21T19:16:20.533Z,52.71
2023-02-21T19:19:23.334Z,52.63
2023-02-21T19:22:25.421Z,52.96
2023-02-21T19:25:29.122Z,52.90
2023-02-21T19:28:32.033Z,52.42
2023-02-21T19:31:34.867Z,52.91
2023-02-21T19:34:37.593Z,53.51
2023-02-21T19:37:39.767Z,52.93
2023-02-21T19:40:42.900Z,53.48
2023-02-21T19:43:45.056Z,53.76
2023-02-21T19:46:47.119Z,53.08
2023-02-21T19:49:49.167Z,53.17
2023-02-21T19:52:53.175Z,54.18
2023-02-21T19:55:55.176Z,55.36
2023-02-21T19:58:58.240Z,56.37
2023-02-21T20:02:01.028Z,56.47
2023-02-21T20:05:03.084Z,55.47
2023-02-21T20:08:06.858Z,55.77
2023-02-21T20:11:10.440Z,56.29
2023-02-21T20:14:13.397Z,56.59
2023-02-21T20:17:16.341Z,56.66
2023-02-21T20:20:18.451Z,58.28
2023-02-21T20:23:21.486Z,64.77
2023-02-21T20:26:25.785Z,63.19
2023-02-21T20:29:28.287Z,62.75
2023-02-21T20:32:30.480Z,63.43
2023-02-21T20:35:32.701Z,63.83
2023-02-21T20:38:36.812Z,63.45
2023-02-21T20:41:39.099Z,64.65
2023-02-21T20:44:43.276Z,65.95
2023-02-21T20:47:45.320Z,66.14
2023-02-21T20:50:47.642Z,67.56
2023-02-21T20:53:49.674Z,67.80
2023-02-21T20:56:54.285Z,67.53
2023-02-21T20:59:58.088Z,68.46
2023-02-21T21:03:00.288Z,68.36
2023-02-21T21:06:04.188Z,69.40
2023-02-21T21:09:06.297Z,70.26
2023-02-21T21:12:11.211Z,70.35
2023-02-21T21:15:16.566Z,70.49
2023-02-21T21:18:27.522Z,73.85
2023-02-21T21:21:31.215Z,71.58
2023-02-21T21:24:33.558Z,71.19
2023-02-21T21:27:36.640Z,70.49
2023-02-21T21:34:07.527Z,72.56
2023-02-21T21:37:23.859Z,74.68
2023-02-21T21:40:30.309Z,78.25
2023-02-21T21:43:32.319Z,80.48
2023-02-21T21:46:35.642Z,82.96
2023-02-21T21:49:38.577Z,92.66
2023-02-21T21:52:40.822Z,91.09
2023-02-21T21:55:43.000Z,90.29
2023-02-21T21:58:45.058Z,89.54
2023-02-21T22:01:48.415Z,90.96
2023-02-21T22:04:53.513Z,90.75
2023-02-21T22:07:56.494Z,89.74
2023-02-21T22:11:01.104Z,88.12
2023-02-21T22:14:05.977Z,87.06
2023-02-21T22:17:12.144Z,85.80
2023-02-21T22:20:17.855Z,85.24
2023-02-21T22:23:24.354Z,84.04
2023-02-21T22:26:30.460Z,83.56
2023-02-21T22:29:32.832Z,82.46
2023-02-21T22:32:37.852Z,80.97
2023-02-21T22:35:41.743Z,80.46
2023-02-21T22:38:47.608Z,79.82
2023-02-21T22:41:49.726Z,80.43
2023-02-21T22:44:51.920Z,79.18
2023-02-21T22:47:57.971Z,79.04
2023-02-21T22:50:59.978Z,79.13
2023-02-21T22:54:02.126Z,77.67
2023-02-21T22:57:05.158Z,77.57
2023-02-21T23:00:19.336Z,77.59
2023-02-21T23:03:22.052Z,77.05
2023-02-21T23:06:24.131Z,76.51
2023-02-21T23:09:30.819Z,76.42
2023-02-21T23:12:32.929Z,75.93
2023-02-21T23:15:35.673Z,75.98
2023-02-21T23:18:39.885Z,76.06
2023-02-21T23:21:50.672Z,75.17
2023-02-21T23:24:54.889Z,75.06
2023-02-21T23:28:04.498Z,74.78
2023-02-21T23:31:06.605Z,74.10
2023-02-21T23:34:12.891Z,73.96
2023-02-21T23:37:15.458Z,73.19
2023-02-21T23:40:20.766Z,73.90
2023-02-21T23:43:25.779Z,73.81
2023-02-21T23:46:29.794Z,72.30
2023-02-21T23:49:31.964Z,72.16
2023-02-21T23:52:34.178Z,72.82
2023-02-21T23:55:36.118Z,72.04
2023-02-21T23:58:41.463Z,72.39
